Marchicora — V2OQ7 — position and weather

sailwx.info

Track history (hours):
 
Tides and Currents Weather Stations Pressure Air Temp Water Temp Dewpoint Dewpoint Depression Visibility Wind Speed Wind Dir Waves Ship Positions

Marchicora

Last reported at 2016-Feb-11 06:23 UTC. Time now 2016-Feb-11 23:26 UTC.
Position N 41°60' W 009°48'.

Length 153 m; draft 9.9 m.

Type: Cargo ship. MMSI: 304653000.

Date/timePositionNaut miles runAvg speedWind from/ knotsBaromVisibWave heightAir tempDewpointWater temp
2016-Feb-11 06:23N 41°60' W 009°48'910.6
2016-Feb-11 05:32N 41°51' W 009°48'1111.2
2016-Feb-11 04:32N 41°40' W 009°48'1211.6
2016-Feb-11 03:32N 41°28' W 009°48'1211.8
2016-Feb-11 02:32N 41°16' W 009°49'1211.8
2016-Feb-11 01:32N 41°05' W 009°49'1110.7
2016-Feb-11 00:32N 40°54' W 009°49'1211.7
2016-Feb-10 23:32N 40°42' W 009°50'1211.8
2016-Feb-10 22:32N 40°30' W 009°51'1110.9
2016-Feb-10 21:29N 40°19' W 009°52'1010.9
2016-Feb-10 20:32N 40°09' W 009°53'1111.3
2016-Feb-10 19:32N 39°57' W 009°54'1110.9
2016-Feb-10 18:32N 39°47' W 009°54'10 9.8
2016-Feb-10 17:32N 39°37' W 009°51'1110.7
2016-Feb-10 16:33N 39°26' W 009°51'1010.6
2016-Feb-10 15:33N 39°16' W 009°51'1110.8
2016-Feb-10 14:33N 39°05' W 009°52'1111.0
2016-Feb-10 13:33N 38°54' W 009°52'1111.3
2016-Feb-10 12:33N 38°43' W 009°52'1111.1
2016-Feb-10 11:33N 38°32' W 009°49'1111.1
2016-Feb-10 10:33N 38°21' W 009°46'1111.3
2016-Feb-10 09:33N 38°10' W 009°42'1111.3
2016-Feb-10 08:33N 37°59' W 009°39'1211.4
2016-Feb-10 07:33N 37°48' W 009°36'1111.0
2016-Feb-10 06:33N 37°37' W 009°33'1110.9
2016-Feb-10 05:33N 37°27' W 009°30'1211.3
2016-Feb-10 04:32N 37°15' W 009°27'1411.4
2016-Feb-10 03:20N 37°02' W 009°22'911.4
2016-Feb-10 02:32N 36°53' W 009°19'1111.2
2016-Feb-10 01:32N 36°45' W 009°10'1010.0
2016-Feb-10 00:33N 36°42' W 008°59'1111.4
2016-Feb-09 23:33N 36°38' W 008°45'1211.9
2016-Feb-09 22:32N 36°34' W 008°31'1511.8
2016-Feb-09 21:14N 36°30' W 008°12'12911.0
2016-Feb-09 09:32N 35°58' W 005°37'9 9.1
2016-Feb-09 08:33N 36°01' W 005°27'7 7.0
2016-Feb-09 07:33N 36°05' W 005°21'8 7.5
2016-Feb-09 06:33N 36°04' W 005°12'  
2016-Feb-06 20:30N 37°55' E 008°29'15812.0
2016-Feb-06 07:24N 37°44' E 011°48'9412.9
2016-Feb-06 00:06N 36°56' E 013°30'712.5
2016-Feb-05 23:33N 36°52' E 013°37'1312.6
2016-Feb-05 22:33N 36°46' E 013°50'1312.5
2016-Feb-05 21:33N 36°39' E 014°04'1212.4
2016-Feb-05 20:33N 36°34' E 014°18'1212.3
2016-Feb-05 19:33N 36°28' E 014°31'1211.8
2016-Feb-05 18:33N 36°26' E 014°46'  
Track history (hours):
 
Tides and Currents Weather Stations Pressure Air Temp Water Temp Dewpoint Dewpoint Depression Visibility Wind Speed Wind Dir Waves Ship Positions

Marchicora

Last reported at 2016-Feb-11 06:23 UTC. Time now 2016-Feb-11 23:26 UTC.
Position N 41°60' W 009°48'.

Length 153 m; draft 9.9 m.

Type: Cargo ship. MMSI: 304653000.

Date/timePositionNaut miles runAvg speedWind from/ knotsBaromVisibWave heightAir tempDewpointWater temp
2016-Feb-11 06:23N 41°60' W 009°48'910.6
2016-Feb-11 05:32N 41°51' W 009°48'1111.2
2016-Feb-11 04:32N 41°40' W 009°48'1211.6
2016-Feb-11 03:32N 41°28' W 009°48'1211.8
2016-Feb-11 02:32N 41°16' W 009°49'1211.8
2016-Feb-11 01:32N 41°05' W 009°49'1110.7
2016-Feb-11 00:32N 40°54' W 009°49'1211.7
2016-Feb-10 23:32N 40°42' W 009°50'1211.8
2016-Feb-10 22:32N 40°30' W 009°51'1110.9
2016-Feb-10 21:29N 40°19' W 009°52'1010.9
2016-Feb-10 20:32N 40°09' W 009°53'1111.3
2016-Feb-10 19:32N 39°57' W 009°54'1110.9
2016-Feb-10 18:32N 39°47' W 009°54'10 9.8
2016-Feb-10 17:32N 39°37' W 009°51'1110.7
2016-Feb-10 16:33N 39°26' W 009°51'1010.6
2016-Feb-10 15:33N 39°16' W 009°51'1110.8
2016-Feb-10 14:33N 39°05' W 009°52'1111.0
2016-Feb-10 13:33N 38°54' W 009°52'1111.3
2016-Feb-10 12:33N 38°43' W 009°52'1111.1
2016-Feb-10 11:33N 38°32' W 009°49'1111.1
2016-Feb-10 10:33N 38°21' W 009°46'1111.3
2016-Feb-10 09:33N 38°10' W 009°42'1111.3
2016-Feb-10 08:33N 37°59' W 009°39'1211.4
2016-Feb-10 07:33N 37°48' W 009°36'1111.0
2016-Feb-10 06:33N 37°37' W 009°33'1110.9
2016-Feb-10 05:33N 37°27' W 009°30'1211.3
2016-Feb-10 04:32N 37°15' W 009°27'1411.4
2016-Feb-10 03:20N 37°02' W 009°22'911.4
2016-Feb-10 02:32N 36°53' W 009°19'1111.2
2016-Feb-10 01:32N 36°45' W 009°10'1010.0
2016-Feb-10 00:33N 36°42' W 008°59'1111.4
2016-Feb-09 23:33N 36°38' W 008°45'1211.9
2016-Feb-09 22:32N 36°34' W 008°31'1511.8
2016-Feb-09 21:14N 36°30' W 008°12'12911.0
2016-Feb-09 09:32N 35°58' W 005°37'9 9.1
2016-Feb-09 08:33N 36°01' W 005°27'7 7.0
2016-Feb-09 07:33N 36°05' W 005°21'8 7.5
2016-Feb-09 06:33N 36°04' W 005°12'  
2016-Feb-06 20:30N 37°55' E 008°29'15812.0
2016-Feb-06 07:24N 37°44' E 011°48'9412.9
2016-Feb-06 00:06N 36°56' E 013°30'712.5
2016-Feb-05 23:33N 36°52' E 013°37'1312.6
2016-Feb-05 22:33N 36°46' E 013°50'1312.5
2016-Feb-05 21:33N 36°39' E 014°04'1212.4
2016-Feb-05 20:33N 36°34' E 014°18'1212.3
2016-Feb-05 19:33N 36°28' E 014°31'1211.8
2016-Feb-05 18:33N 36°26' E 014°46'  

Dump ship's entire track history